Time;durP1;ratioP1;P1;durP2;ratioP2;P2;SDS_P1;SDS_P2;PMS_P1;PMS_P2;Temp;Humidity;BMP_temperature;BMP_pressure;BME280_temperature;BME280_humidity;BME280_pressure;Samples;Min_cycle;Max_cycle;Signal;HPM_P1;HPM_P2
2022/06/09 00:00:02;;;;;;;37.93;33.92;;;;;;;16.91;99.09;98216.80;2237698;79;20936;-80
2022/06/09 00:03:03;;;;;;;39.27;35.20;;;;;;;16.91;98.99;98214.16;2237754;79;20923;-80
2022/06/09 00:06:03;;;;;;;41.33;36.80;;;;;;;16.91;99.21;98208.89;2237514;79;20912;-80
2022/06/09 00:09:04;;;;;;;39.65;35.52;;;;;;;16.92;99.19;98201.84;2237624;79;20889;-80
2022/06/09 00:12:05;;;;;;;37.53;33.53;;;;;;;16.94;99.16;98198.27;2237550;79;20916;-80
2022/06/09 00:15:04;;;;;;;38.25;34.25;;;;;;;16.94;99.25;98193.00;2237057;78;21015;-81
2022/06/09 00:18:05;;;;;;;38.13;34.20;;;;;;;16.93;98.96;98189.08;2237108;79;20952;-81
2022/06/09 00:21:05;;;;;;;38.80;34.83;;;;;;;16.94;98.79;98188.18;2236964;79;20944;-81
2022/06/09 00:24:06;;;;;;;34.35;30.60;;;;;;;16.91;98.79;98179.89;2236765;79;20951;-82
2022/06/09 00:27:06;;;;;;;35.80;30.88;;;;;;;16.91;99.08;98188.25;2237457;79;20967;-81
2022/06/09 00:30:06;;;;;;;34.05;30.43;;;;;;;16.92;99.29;98184.26;2233946;78;20960;-81
2022/06/09 00:33:07;;;;;;;35.45;31.82;;;;;;;16.95;99.68;98180.23;2210153;79;21307;-81
2022/06/09 00:36:07;;;;;;;36.48;32.15;;;;;;;16.98;99.42;98179.30;2210190;79;20940;-80
2022/06/09 00:39:08;;;;;;;35.10;31.40;;;;;;;16.99;99.36;98179.70;2210147;79;20949;-80
2022/06/09 00:42:08;;;;;;;35.70;31.95;;;;;;;16.98;99.14;98182.80;2210240;79;20921;-80
2022/06/09 00:45:08;;;;;;;34.60;31.33;;;;;;;16.97;99.22;98178.42;2210249;79;21031;-81
2022/06/09 00:48:09;;;;;;;36.68;33.10;;;;;;;16.99;99.49;98176.62;2210545;79;21035;-80
2022/06/09 00:51:09;;;;;;;36.93;33.13;;;;;;;16.99;99.32;98168.71;2210120;79;20956;-80
2022/06/09 00:54:10;;;;;;;35.90;32.30;;;;;;;16.99;99.00;98159.48;2209300;79;20952;-81
2022/06/09 00:57:10;;;;;;;37.20;33.35;;;;;;;16.98;99.02;98159.52;2210340;79;20925;-81
2022/06/09 01:00:11;;;;;;;36.23;32.42;;;;;;;16.93;98.86;98150.86;2210257;79;20917;-80
2022/06/09 01:03:11;;;;;;;37.53;32.88;;;;;;;16.91;98.93;98152.66;2210084;79;20885;-81
2022/06/09 01:06:11;;;;;;;37.65;33.67;;;;;;;16.84;98.73;98152.81;2209512;79;20968;-82
2022/06/09 01:09:12;;;;;;;37.70;33.80;;;;;;;16.80;99.00;98146.34;2210096;79;20976;-81
2022/06/09 01:12:12;;;;;;;42.40;36.75;;;;;;;16.76;99.11;98144.67;2209621;79;21301;-82
2022/06/09 01:15:13;;;;;;;42.85;37.90;;;;;;;16.75;99.65;98133.27;2209417;79;20968;-82
2022/06/09 01:18:13;;;;;;;42.20;37.58;;;;;;;16.73;99.49;98135.53;2209777;79;20941;-82
2022/06/09 01:21:14;;;;;;;43.68;38.98;;;;;;;16.71;99.64;98137.33;2209618;79;20932;-81
2022/06/09 01:24:14;;;;;;;42.08;37.42;;;;;;;16.69;99.82;98142.64;2209511;79;20933;-81
2022/06/09 01:27:14;;;;;;;42.83;38.35;;;;;;;16.69;99.92;98147.05;2209250;79;20980;-80
2022/06/09 01:30:15;;;;;;;46.92;39.90;;;;;;;16.70;99.95;98144.82;2212350;79;20921;-81
2022/06/09 01:33:15;;;;;;;42.98;38.38;;;;;;;16.68;100.00;98142.67;2236833;79;21259;-80
2022/06/09 01:36:15;;;;;;;41.88;37.38;;;;;;;16.68;99.92;98145.31;2236652;79;20923;-79
2022/06/09 01:39:16;;;;;;;44.08;38.28;;;;;;;16.67;99.93;98141.81;2236728;79;20951;-81
2022/06/09 01:42:16;;;;;;;43.60;38.88;;;;;;;16.66;100.00;98132.17;2237159;79;20912;-80
2022/06/09 01:45:17;;;;;;;45.85;39.33;;;;;;;16.69;100.00;98128.59;2236884;79;21429;-80
2022/06/09 01:48:17;;;;;;;45.30;39.33;;;;;;;16.71;100.00;98125.47;2236768;79;20920;-81
2022/06/09 01:51:17;;;;;;;44.42;38.55;;;;;;;16.71;100.00;98125.02;2236984;79;20885;-80
2022/06/09 01:54:18;;;;;;;47.40;38.88;;;;;;;16.74;100.00;98121.45;2237077;79;20943;-81
2022/06/09 01:57:18;;;;;;;44.88;38.55;;;;;;;16.72;100.00;98118.85;2236855;79;21327;-81
2022/06/09 02:00:19;;;;;;;46.88;38.42;;;;;;;16.70;100.00;98115.39;2236997;79;20892;-81
2022/06/09 02:03:19;;;;;;;42.75;38.05;;;;;;;16.68;100.00;98116.33;2237029;79;20935;-81
2022/06/09 02:06:19;;;;;;;40.48;36.00;;;;;;;16.66;100.00;98120.77;2236888;79;20966;-82
2022/06/09 02:09:20;;;;;;;40.90;35.78;;;;;;;16.62;100.00;98116.44;2236604;79;21334;-83
2022/06/09 02:12:22;;;;;;;41.75;36.38;;;;;;;16.58;100.00;98109.06;2236506;79;20943;-83
2022/06/09 02:15:21;;;;;;;42.65;37.28;;;;;;;16.52;100.00;98112.70;2236841;79;20912;-82
2022/06/09 02:18:21;;;;;;;43.50;38.10;;;;;;;16.47;100.00;98108.00;2235862;79;20959;-82
2022/06/09 02:21:21;;;;;;;41.73;36.58;;;;;;;16.44;100.00;98098.81;2236457;80;21298;-83
2022/06/09 02:24:22;;;;;;;42.75;38.00;;;;;;;16.41;100.00;98108.11;2236630;79;21322;-83
2022/06/09 02:27:22;;;;;;;45.35;38.60;;;;;;;16.41;100.00;98116.01;2236738;80;21003;-83
2022/06/09 02:30:23;;;;;;;50.00;36.90;;;;;;;16.44;100.00;98129.11;2234665;79;20896;-83
2022/06/09 02:33:23;;;;;;;45.30;38.63;;;;;;;16.49;100.00;98132.53;2209356;79;20897;-83
2022/06/09 02:36:24;;;;;;;41.23;35.85;;;;;;;16.57;100.00;98149.48;2209265;79;20921;-82
2022/06/09 02:39:24;;;;;;;46.10;41.13;;;;;;;16.59;100.00;98196.42;2209321;79;20897;-83
2022/06/09 02:42:24;;;;;;;53.20;43.58;;;;;;;16.62;100.00;98227.10;2209157;79;20944;-82
2022/06/09 02:45:33;;;;;;;49.50;42.50;;;;;;;16.63;100.00;98218.30;2209161;78;21561;-82
2022/06/09 02:48:31;;;;;;;47.48;41.55;;;;;;;16.66;100.00;98205.09;2209228;79;20924;-82
2022/06/09 02:51:31;;;;;;;42.58;35.90;;;;;;;16.73;100.00;98212.82;2209512;79;20913;-83
2022/06/09 02:54:32;;;;;;;42.60;35.92;;;;;;;16.81;100.00;98207.38;2208348;79;21007;-84
2022/06/09 02:57:32;;;;;;;29.40;26.17;;;;;;;16.85;100.00;98199.36;2208862;79;21027;-83
2022/06/09 03:00:33;;;;;;;20.25;18.15;;;;;;;16.86;100.00;98193.18;2209182;79;20913;-82
2022/06/09 03:03:33;;;;;;;17.45;15.90;;;;;;;16.87;99.54;98198.00;2209084;79;20976;-82
2022/06/09 03:06:33;;;;;;;15.23;13.58;;;;;;;16.88;99.35;98210.28;2209278;79;20941;-83
2022/06/09 03:09:34;;;;;;;12.47;11.28;;;;;;;16.87;98.69;98212.05;2209271;79;20949;-84
2022/06/09 03:12:34;;;;;;;11.53;8.60;;;;;;;16.84;97.88;98204.66;2209337;79;20913;-83
2022/06/09 03:15:35;;;;;;;11.00;9.98;;;;;;;16.75;96.51;98206.20;2209225;79;21415;-83
2022/06/09 03:18:35;;;;;;;12.20;10.43;;;;;;;16.71;97.25;98224.30;2209122;79;20968;-83
2022/06/09 03:21:35;;;;;;;21.85;13.05;;;;;;;16.65;97.83;98223.08;2208874;79;20967;-86
2022/06/09 03:24:40;;;;;;;15.53;10.95;;;;;;;16.54;98.22;98167.55;2208921;79;20897;-87
2022/06/09 03:27:39;;;;;;;13.35;11.57;;;;;;;16.20;97.94;98112.09;2195374;81;20941;-84
2022/06/09 03:30:38;;;;;;;15.32;10.75;;;;;;;15.93;98.52;98103.03;2208574;79;20964;-83
2022/06/09 03:33:39;;;;;;;10.68;9.60;;;;;;;15.82;100.00;98091.00;2208841;79;20993;-82
2022/06/09 03:36:39;;;;;;;8.38;7.58;;;;;;;15.75;99.48;98092.89;2207681;79;21018;-82
2022/06/09 03:39:40;;;;;;;11.73;9.25;;;;;;;15.75;99.77;98110.00;2207714;81;21019;-80
2022/06/09 03:42:40;;;;;;;9.75;8.85;;;;;;;15.79;100.00;98129.22;2207534;79;21358;-79
2022/06/09 03:45:40;;;;;;;9.50;8.60;;;;;;;15.82;100.00;98143.18;2206598;79;20999;-78
2022/06/09 03:48:43;;;;;;;11.18;9.83;;;;;;;15.82;100.00;98131.34;2206460;81;21390;-82
2022/06/09 03:51:44;;;;;;;9.45;8.48;;;;;;;15.85;100.00;98136.55;2208315;79;21012;-79
2022/06/09 03:54:44;;;;;;;9.13;8.18;;;;;;;15.92;100.00;98130.25;2208012;79;20984;-79
2022/06/09 03:57:45;;;;;;;11.60;8.10;;;;;;;15.97;100.00;98122.26;2208997;79;20921;-79
2022/06/09 04:00:45;;;;;;;8.78;7.92;;;;;;;16.02;100.00;98119.53;2208984;79;21388;-79
2022/06/09 04:03:46;;;;;;;9.60;8.23;;;;;;;16.07;100.00;98123.80;2207787;79;20929;-78
2022/06/09 04:06:46;;;;;;;11.12;8.68;;;;;;;16.15;100.00;98106.52;2207189;79;20993;-77
2022/06/09 04:09:46;;;;;;;9.78;8.88;;;;;;;16.24;100.00;98108.49;2207566;79;20972;-78
2022/06/09 04:12:47;;;;;;;21.20;11.08;;;;;;;16.41;100.00;98114.69;2206575;79;20925;-78
2022/06/09 04:15:48;;;;;;;9.03;8.23;;;;;;;16.62;100.00;98114.67;2208338;79;20977;-78
2022/06/09 04:18:48;;;;;;;11.28;9.63;;;;;;;16.80;100.00;98112.08;2207897;79;20976;-79
2022/06/09 04:21:48;;;;;;;13.40;9.40;;;;;;;16.96;99.96;98112.56;2207754;79;21392;-79
2022/06/09 04:24:48;;;;;;;12.15;10.95;;;;;;;17.16;99.46;98098.41;2206590;81;20999;-79
2022/06/09 04:27:49;;;;;;;11.70;10.50;;;;;;;17.25;98.50;98095.52;2205123;81;20992;-78
2022/06/09 04:30:49;;;;;;;15.95;11.63;;;;;;;17.45;98.68;98096.33;2207079;79;21006;-78
2022/06/09 04:33:50;;;;;;;16.12;11.53;;;;;;;17.63;98.45;98077.80;2232335;79;20951;-79
2022/06/09 04:36:50;;;;;;;14.65;11.90;;;;;;;17.74;97.76;98081.90;2231346;79;21410;-78
2022/06/09 04:39:50;;;;;;;14.33;12.05;;;;;;;17.86;97.11;98083.77;2231954;79;20975;-79
2022/06/09 04:42:51;;;;;;;11.75;10.65;;;;;;;17.95;96.68;98083.50;2232758;79;21031;-79
2022/06/09 04:45:51;;;;;;;13.50;11.30;;;;;;;18.07;96.62;98084.45;2232766;79;21897;-79
2022/06/09 04:48:52;;;;;;;15.20;11.22;;;;;;;18.16;96.31;98088.13;2233415;80;20931;-79
2022/06/09 04:51:52;;;;;;;10.70;9.65;;;;;;;18.21;95.42;98078.32;2233206;79;21077;-78
2022/06/09 04:54:52;;;;;;;10.72;9.65;;;;;;;18.15;94.51;98074.52;2232712;80;20963;-79
2022/06/09 04:57:53;;;;;;;11.63;8.60;;;;;;;18.16;94.94;98086.81;2233714;79;20987;-80
2022/06/09 05:00:53;;;;;;;10.60;8.93;;;;;;;18.23;95.03;98083.10;2233129;80;20999;-82
2022/06/09 05:03:54;;;;;;;14.13;8.85;;;;;;;18.25;94.62;98081.73;2234725;79;20928;-81
2022/06/09 05:06:54;;;;;;;9.53;8.58;;;;;;;18.28;94.56;98078.54;2234235;79;21046;-81
2022/06/09 05:10:03;;;;;;;9.18;8.28;;;;;;;18.31;94.36;98086.37;2233488;80;20999;-80
2022/06/09 05:13:05;;;;;;;9.73;8.75;;;;;;;18.30;94.49;98083.32;2233839;79;21001;-82
2022/06/09 05:16:04;;;;;;;9.40;8.50;;;;;;;18.34;93.54;98092.02;2233905;79;20962;-82
2022/06/09 05:19:04;;;;;;;10.32;8.48;;;;;;;18.42;93.20;98096.14;2233800;79;20947;-80
2022/06/09 05:22:05;;;;;;;19.15;9.20;;;;;;;18.50;93.13;98099.87;2233583;79;21394;-81
2022/06/09 05:25:06;;;;;;;10.70;9.60;;;;;;;18.65;93.04;98095.90;2233677;79;21030;-81
2022/06/09 05:28:06;;;;;;;11.63;10.63;;;;;;;18.79;92.69;98093.67;2233508;79;20920;-78
2022/06/09 05:31:06;;;;;;;11.95;10.32;;;;;;;18.89;91.51;98096.88;2232233;79;20911;-82
2022/06/09 05:34:08;;;;;;;11.65;10.58;;;;;;;19.02;91.40;98095.55;2233301;79;21404;-83
2022/06/09 05:37:07;;;;;;;13.70;11.48;;;;;;;19.17;90.60;98094.19;2233453;79;21043;-81
2022/06/09 05:46:45;;;;;;;13.62;12.30;;;;;;;19.48;89.43;98095.30;2234325;80;21054;-82
2022/06/09 05:49:47;;;;;;;14.98;12.10;;;;;;;19.62;88.38;98097.89;2234177;79;20947;-83
2022/06/09 05:52:46;;;;;;;13.38;12.23;;;;;;;19.67;87.63;98094.61;2234929;79;21030;-83
2022/06/09 05:55:46;;;;;;;14.20;12.98;;;;;;;19.75;87.38;98098.77;2234589;79;21390;-82
2022/06/09 05:58:47;;;;;;;14.03;12.82;;;;;;;19.80;86.24;98104.75;2233822;79;20963;-82
2022/06/09 06:01:48;;;;;;;12.85;11.83;;;;;;;19.96;87.04;98106.81;2234176;79;21030;-82
2022/06/09 06:04:47;;;;;;;13.65;12.55;;;;;;;20.19;86.06;98109.91;2233324;79;20994;-81
2022/06/09 06:07:48;;;;;;;14.55;12.33;;;;;;;20.24;83.98;98102.64;2233325;79;20959;-80
2022/06/09 06:10:48;;;;;;;12.70;11.57;;;;;;;20.39;85.17;98107.84;2233176;79;20935;-81
2022/06/09 06:13:49;;;;;;;16.00;11.60;;;;;;;20.62;84.55;98113.55;2233580;79;20994;-81
2022/06/09 06:16:49;;;;;;;11.68;10.55;;;;;;;20.84;83.95;98111.80;2233832;79;21429;-81
2022/06/09 06:19:49;;;;;;;11.33;10.27;;;;;;;21.00;83.46;98119.98;2234087;79;21015;-83
2022/06/09 06:22:50;;;;;;;11.53;9.80;;;;;;;21.08;81.29;98112.56;2234619;79;21014;-83
2022/06/09 06:25:50;;;;;;;11.15;10.08;;;;;;;21.23;81.30;98111.95;2233741;79;21347;-81
2022/06/09 06:28:51;;;;;;;11.65;10.45;;;;;;;21.40;79.76;98116.53;2232932;79;20948;-83
2022/06/09 06:31:53;;;;;;;10.90;10.05;;;;;;;21.65;79.30;98107.48;2226562;80;21035;-82
2022/06/09 06:34:53;;;;;;;11.68;10.72;;;;;;;21.84;77.11;98106.62;2205744;81;20987;-82
2022/06/09 06:37:53;;;;;;;11.33;10.35;;;;;;;21.75;76.38;98109.70;2205986;79;21466;-80
2022/06/09 06:40:54;;;;;;;11.03;9.93;;;;;;;21.63;74.46;98116.39;2206434;79;21327;-82
2022/06/09 06:43:54;;;;;;;11.22;10.23;;;;;;;21.74;76.98;98105.78;2206547;79;20982;-83
2022/06/09 06:46:55;;;;;;;11.60;10.70;;;;;;;21.84;75.71;98115.93;2206607;79;20988;-82
2022/06/09 06:49:55;;;;;;;10.95;10.13;;;;;;;21.66;76.58;98119.84;2162938;82;21334;-80
2022/06/09 06:52:56;;;;;;;11.40;10.50;;;;;;;21.88;76.42;98114.86;2156069;82;21061;-83
2022/06/09 06:55:56;;;;;;;12.50;11.33;;;;;;;21.85;75.11;98110.15;2155342;83;21379;-82
2022/06/09 06:58:57;;;;;;;12.00;10.90;;;;;;;21.59;75.02;98116.59;2156007;83;20999;-83
2022/06/09 07:01:57;;;;;;;13.22;12.00;;;;;;;21.54;76.28;98112.81;2156783;83;20976;-81
2022/06/09 07:04:58;;;;;;;13.20;12.10;;;;;;;21.60;76.52;98109.88;2156286;83;21054;-81
2022/06/09 07:07:58;;;;;;;13.28;12.18;;;;;;;21.69;75.66;98109.98;2156776;83;21020;-80
2022/06/09 07:10:59;;;;;;;12.90;11.75;;;;;;;21.59;76.09;98112.14;2156508;83;20937;-81
2022/06/09 07:13:59;;;;;;;13.93;11.60;;;;;;;21.72;75.85;98110.30;2155689;83;21344;-82
2022/06/09 07:17:00;;;;;;;12.80;11.80;;;;;;;21.96;76.10;98109.66;2156387;83;21031;-83
2022/06/09 07:20:00;;;;;;;14.28;12.33;;;;;;;22.04;75.26;98112.40;2156028;82;21039;-82
2022/06/09 07:23:00;;;;;;;12.95;11.88;;;;;;;22.14;75.72;98106.19;2157279;82;20976;-82
2022/06/09 07:26:01;;;;;;;13.20;12.10;;;;;;;22.31;75.56;98100.09;2157362;83;20984;-83
2022/06/09 07:29:01;;;;;;;12.63;11.53;;;;;;;22.38;74.33;98095.73;2156736;83;21003;-81
2022/06/09 07:32:02;;;;;;;18.67;13.80;;;;;;;22.50;74.43;98093.81;2159237;82;20980;-83
2022/06/09 07:35:07;;;;;;;15.23;13.90;;;;;;;22.86;73.16;98091.70;2170508;82;21443;-82
2022/06/09 07:38:05;;;;;;;15.63;14.33;;;;;;;23.20;72.53;98085.06;2164075;82;20979;-81
2022/06/09 07:41:05;;;;;;;15.98;14.18;;;;;;;23.38;71.33;98090.38;2209194;80;20991;-83
2022/06/09 07:44:05;;;;;;;110.85;18.85;;;;;;;23.51;71.41;98089.70;2209386;81;20956;-82
2022/06/09 07:47:06;;;;;;;17.48;15.75;;;;;;;23.73;72.39;98093.45;2209266;80;21071;-84
2022/06/09 07:50:06;;;;;;;16.82;15.20;;;;;;;23.93;71.19;98095.05;2209719;80;20917;-80
2022/06/09 07:53:07;;;;;;;17.20;15.55;;;;;;;24.14;70.45;98089.89;2209800;80;20987;-83
2022/06/09 07:56:07;;;;;;;17.15;15.65;;;;;;;24.28;70.19;98092.33;2211119;80;20940;-80
2022/06/09 07:59:07;;;;;;;17.57;16.07;;;;;;;24.43;70.73;98091.48;2209589;80;21043;-81
2022/06/09 08:02:08;;;;;;;17.52;15.85;;;;;;;24.45;69.57;98090.92;2210047;80;20921;-83
2022/06/09 08:05:09;;;;;;;18.80;16.97;;;;;;;24.55;69.01;98097.45;2210168;80;21014;-81
2022/06/09 08:08:09;;;;;;;17.07;15.58;;;;;;;24.62;68.69;98088.63;2209552;80;20976;-83
2022/06/09 08:11:09;;;;;;;17.75;16.35;;;;;;;24.88;69.26;98086.66;2209811;81;20983;-81
2022/06/09 08:14:10;;;;;;;17.98;14.87;;;;;;;25.02;69.07;98095.23;2208460;81;21192;-81
2022/06/09 08:17:11;;;;;;;15.63;14.18;;;;;;;25.61;68.92;98093.03;2208150;81;21497;-82
2022/06/09 08:20:10;;;;;;;15.08;13.55;;;;;;;26.16;68.27;98099.04;2209391;80;21288;-81
2022/06/09 08:23:11;;;;;;;15.00;13.50;;;;;;;26.58;66.19;98094.61;2209422;80;21419;-80
2022/06/09 08:26:11;;;;;;;14.07;12.82;;;;;;;26.73;65.30;98092.75;2209246;80;21027;-81
2022/06/09 08:29:12;;;;;;;14.20;13.03;;;;;;;26.81;65.23;98092.62;2209395;80;20992;-82
2022/06/09 08:32:13;;;;;;;13.60;12.30;;;;;;;27.02;63.64;98093.09;2200275;80;22294;-81
2022/06/09 08:35:13;;;;;;;12.20;11.20;;;;;;;27.03;63.01;98093.94;2190007;81;21018;-84
2022/06/09 08:38:14;;;;;;;12.43;11.48;;;;;;;27.03;63.64;98096.14;2234196;78;21343;-81
2022/06/09 08:41:17;;;;;;;11.73;10.80;;;;;;;27.01;62.43;98090.51;2234309;79;20987;-81
2022/06/09 08:44:14;;;;;;;12.00;10.63;;;;;;;27.05;62.82;98090.20;2234355;80;20987;-82
2022/06/09 08:47:15;;;;;;;10.30;9.60;;;;;;;27.19;61.71;98090.13;2234325;79;21050;-83
2022/06/09 08:50:15;;;;;;;12.65;11.33;;;;;;;27.82;60.98;98087.22;2233899;80;20968;-82
2022/06/09 08:53:16;;;;;;;11.08;10.20;;;;;;;28.29;57.94;98092.41;2234982;79;21336;-81
2022/06/09 08:56:16;;;;;;;11.65;10.63;;;;;;;28.14;59.29;98092.50;2235155;80;20936;-81
2022/06/09 08:59:17;;;;;;;11.28;10.13;;;;;;;28.28;58.95;98092.89;2234782;79;21313;-81
2022/06/09 09:02:17;;;;;;;13.40;10.58;;;;;;;28.65;58.17;98092.92;2233915;80;20944;-83
2022/06/09 09:05:17;;;;;;;11.25;10.30;;;;;;;28.85;56.87;98096.37;2233450;80;20979;-82
2022/06/09 09:08:18;;;;;;;11.12;9.78;;;;;;;28.83;56.65;98106.34;2233587;79;20955;-82
2022/06/09 09:11:18;;;;;;;11.68;10.45;;;;;;;28.96;56.06;98105.83;2233726;79;21339;-82
2022/06/09 09:14:19;;;;;;;11.20;10.10;;;;;;;28.96;56.06;98105.83;2233848;79;20975;-83
2022/06/09 09:17:19;;;;;;;11.15;10.25;;;;;;;28.74;55.55;98109.22;2233649;79;21011;-81
2022/06/09 09:20:19;;;;;;;12.85;11.05;;;;;;;28.65;55.81;98115.27;2233706;79;20915;-81
2022/06/09 09:23:21;;;;;;;11.35;10.38;;;;;;;28.69;55.61;98111.88;2233451;80;20940;-82
2022/06/09 09:26:32;;;;;;;11.73;10.78;;;;;;;29.20;55.19;98108.50;2234042;79;20985;-81
2022/06/09 09:29:33;;;;;;;11.95;10.82;;;;;;;29.59;54.07;98106.02;2233933;79;21386;-83
2022/06/09 09:32:33;;;;;;;12.25;11.10;;;;;;;29.75;53.70;98098.95;2233958;79;20959;-79
2022/06/09 09:35:34;;;;;;;11.97;10.88;;;;;;;30.02;53.26;98102.20;2233591;79;21030;-82
2022/06/09 09:38:34;;;;;;;12.43;11.00;;;;;;;30.42;52.28;98103.09;2233708;79;21248;-82
2022/06/09 09:41:35;;;;;;;11.20;10.35;;;;;;;30.65;51.87;98097.21;2233005;79;20963;-82
2022/06/09 09:44:35;;;;;;;12.35;10.18;;;;;;;30.36;51.15;98097.70;2232797;79;20948;-80
2022/06/09 09:47:35;;;;;;;11.57;10.48;;;;;;;29.91;51.53;98102.16;2233159;79;21015;-82
2022/06/09 09:50:36;;;;;;;12.63;11.48;;;;;;;29.90;52.16;98102.28;2233608;78;20983;-82
2022/06/09 09:53:36;;;;;;;12.53;11.35;;;;;;;30.26;50.74;98100.74;2233529;78;21181;-82
2022/06/09 09:56:37;;;;;;;11.78;10.78;;;;;;;30.33;50.62;98098.41;2232809;79;20928;-82
2022/06/09 09:59:39;;;;;;;12.35;11.20;;;;;;;30.54;51.02;98101.23;2210024;80;21042;-84
2022/06/09 10:09:17;;;;;;;14.58;12.15;;;;;;;30.53;49.94;98096.83;2232070;80;20987;-81
2022/06/09 10:12:18;;;;;;;12.60;11.40;;;;;;;30.68;49.77;98092.92;2232451;79;21030;-82
2022/06/09 10:15:18;;;;;;;12.82;11.55;;;;;;;30.86;49.38;98092.75;2233341;79;20986;-80
2022/06/09 10:18:18;;;;;;;13.25;12.03;;;;;;;31.09;48.28;98087.28;2233439;79;21030;-82
2022/06/09 10:21:19;;;;;;;12.13;11.20;;;;;;;31.15;48.15;98093.55;2233305;79;21342;-82
2022/06/09 10:24:19;;;;;;;12.28;11.28;;;;;;;31.00;48.00;98099.20;2233265;79;20983;-83
2022/06/09 10:27:20;;;;;;;12.90;11.70;;;;;;;31.37;47.73;98093.48;2233877;79;21007;-81
2022/06/09 10:30:20;;;;;;;13.83;12.03;;;;;;;31.67;47.35;98096.74;2233492;79;20955;-80
2022/06/09 10:33:20;;;;;;;11.57;10.60;;;;;;;31.72;46.93;98097.73;2232800;79;21386;-81
2022/06/09 10:36:21;;;;;;;11.60;10.58;;;;;;;31.50;46.62;98094.14;2232459;79;20975;-83
2022/06/09 10:39:24;;;;;;;12.78;11.28;;;;;;;31.22;46.78;98093.42;2233315;79;20982;-82
2022/06/09 10:42:24;;;;;;;11.22;10.32;;;;;;;31.36;46.83;98094.46;2233806;78;20954;-82
2022/06/09 10:45:25;;;;;;;153.02;19.25;;;;;;;31.34;46.49;98095.94;2234362;79;20888;-84
2022/06/09 10:55:15;;;;;;;11.35;10.48;;;;;;;30.83;46.87;98085.41;2233522;80;21038;-84
2022/06/09 10:58:16;;;;;;;13.62;10.95;;;;;;;30.62;46.62;98078.61;2234092;79;21401;-88
2022/06/09 11:01:17;;;;;;;17.10;11.75;;;;;;;30.47;48.22;98076.64;2234690;79;20947;-84
2022/06/09 11:04:16;;;;;;;14.47;11.60;;;;;;;30.50;47.90;98074.19;2234060;80;21015;-86
2022/06/09 11:07:17;;;;;;;12.82;11.73;;;;;;;30.45;47.90;98067.84;2234788;79;20888;-83
2022/06/09 11:10:17;;;;;;;12.43;11.18;;;;;;;30.48;47.80;98066.73;2235298;79;20928;-81
2022/06/09 11:13:18;;;;;;;18.30;11.18;;;;;;;30.51;48.53;98068.68;2233889;79;20924;-83
2022/06/09 11:16:18;;;;;;;12.80;11.55;;;;;;;30.69;48.15;98065.00;2232619;78;20994;-84
2022/06/09 11:19:19;;;;;;;12.40;11.28;;;;;;;30.65;47.84;98067.59;2231945;79;21709;-83
2022/06/09 11:22:20;;;;;;;12.68;11.57;;;;;;;30.74;47.41;98056.05;2231900;80;21034;-83
2022/06/09 11:25:22;;;;;;;13.25;12.00;;;;;;;31.18;47.21;98052.85;2210873;80;21449;-82
2022/06/09 11:28:24;;;;;;;16.32;12.43;;;;;;;31.40;46.03;98050.56;2232821;80;21304;-83
2022/06/09 11:31:24;;;;;;;13.83;12.25;;;;;;;31.38;45.96;98040.40;2233341;79;22019;-81
2022/06/09 11:34:25;;;;;;;13.15;12.05;;;;;;;31.27;45.96;98039.97;2215726;79;21051;-81
2022/06/09 11:37:26;;;;;;;12.35;11.33;;;;;;;30.94;46.17;98032.34;2207567;79;21012;-83
2022/06/09 11:40:26;;;;;;;12.50;11.60;;;;;;;30.90;47.33;98031.38;2207190;79;20984;-83
2022/06/09 11:43:26;;;;;;;11.60;10.78;;;;;;;30.96;46.11;98029.52;2206952;79;20992;-83
2022/06/09 11:46:28;;;;;;;11.68;10.82;;;;;;;31.06;47.05;98033.14;2193515;81;20992;-83
2022/06/09 11:49:28;;;;;;;11.70;10.75;;;;;;;31.18;46.42;98036.68;2207674;79;21423;-83
2022/06/09 11:52:29;;;;;;;11.78;10.68;;;;;;;31.51;46.00;98039.22;2207408;79;20984;-82
2022/06/09 11:56:14;;;;;;;12.70;10.18;;;;;;;31.82;45.19;98037.93;2206961;79;20928;-82
2022/06/09 11:58:30;;;;;;;9.90;9.10;;;;;;;32.26;44.94;98030.86;2207691;79;21000;-83
2022/06/09 12:01:30;;;;;;;10.00;9.20;;;;;;;32.56;42.91;98027.23;2208398;79;21028;-80
2022/06/09 12:04:30;;;;;;;9.00;8.40;;;;;;;32.63;42.97;98032.94;2207374;79;20987;-82
2022/06/09 12:07:31;;;;;;;10.85;8.40;;;;;;;32.63;42.09;98033.80;2206338;79;20991;-82
2022/06/09 12:10:33;;;;;;;10.60;7.45;;;;;;;32.63;41.60;98031.09;2205513;79;21364;-81
2022/06/09 12:13:33;;;;;;;9.25;8.30;;;;;;;32.73;40.50;98032.95;2205581;81;20969;-81
2022/06/09 12:16:32;;;;;;;14.60;9.03;;;;;;;32.79;41.25;98025.66;2205643;81;20952;-81
2022/06/09 12:19:35;;;;;;;9.93;9.08;;;;;;;33.02;40.59;98028.48;2205807;79;21482;-82
2022/06/09 12:22:33;;;;;;;9.45;8.33;;;;;;;33.09;40.36;98030.97;2205997;81;20999;-81
2022/06/09 12:25:33;;;;;;;11.18;9.25;;;;;;;32.77;41.95;98024.45;2206090;79;20983;-82
2022/06/09 12:28:34;;;;;;;10.08;9.18;;;;;;;33.01;41.44;98024.57;2204860;79;21437;-81
2022/06/09 12:31:34;;;;;;;8.13;7.42;;;;;;;33.32;40.79;98022.09;2205053;81;20915;-82
2022/06/09 12:34:37;;;;;;;8.23;7.42;;;;;;;33.51;39.35;98019.35;2223200;80;20983;-81
2022/06/09 12:37:35;;;;;;;8.03;7.33;;;;;;;33.33;39.14;98020.23;2233344;79;21067;-80
2022/06/09 12:40:35;;;;;;;8.00;7.40;;;;;;;33.46;38.99;98018.08;2233923;79;20978;-81
2022/06/09 12:43:36;;;;;;;8.33;7.50;;;;;;;33.55;37.39;98008.59;2233182;79;20923;-81
2022/06/09 12:46:36;;;;;;;8.23;7.33;;;;;;;33.50;37.51;98003.27;2233124;79;20958;-80
2022/06/09 12:49:37;;;;;;;7.78;7.00;;;;;;;33.35;36.43;98000.66;2232864;79;21029;-79
2022/06/09 12:52:38;;;;;;;8.10;7.47;;;;;;;33.34;37.29;97998.45;2230782;79;20970;-81
2022/06/09 12:55:37;;;;;;;9.53;7.03;;;;;;;33.48;37.15;97997.14;2233210;79;21000;-80
2022/06/09 12:58:38;;;;;;;9.38;7.20;;;;;;;33.46;37.27;98001.84;2233511;79;21366;-81
2022/06/09 13:01:38;;;;;;;9.48;7.67;;;;;;;33.18;36.73;98007.62;2232972;80;20990;-82
2022/06/09 13:04:38;;;;;;;13.62;7.90;;;;;;;33.10;36.74;98011.05;2233706;80;21330;-81
2022/06/09 13:07:39;;;;;;;58.87;10.25;;;;;;;33.14;37.76;98008.41;2232875;79;21283;-80
2022/06/09 13:10:39;;;;;;;9.33;6.97;;;;;;;33.52;36.59;98007.53;2232894;80;21005;-81
2022/06/09 13:13:40;;;;;;;7.80;6.10;;;;;;;33.93;36.34;98006.82;2232182;79;21011;-81
2022/06/09 13:16:40;;;;;;;7.50;6.75;;;;;;;34.10;35.27;98001.97;2232418;78;20998;-79
2022/06/09 13:19:40;;;;;;;7.92;6.50;;;;;;;34.23;35.73;97998.06;2229374;79;21065;-81
2022/06/09 13:22:43;;;;;;;8.00;7.40;;;;;;;34.41;35.74;98004.41;2232521;80;21379;-81
2022/06/09 13:25:41;;;;;;;9.43;8.43;;;;;;;34.37;37.05;97999.79;2232986;79;20995;-80
2022/06/09 13:28:42;;;;;;;9.53;8.75;;;;;;;33.82;37.97;98000.24;2233006;79;20955;-80
2022/06/09 13:31:42;;;;;;;9.35;8.30;;;;;;;33.40;39.17;98001.08;2232951;79;21736;-80
2022/06/09 13:34:43;;;;;;;8.98;8.08;;;;;;;33.16;40.19;98010.47;2216911;79;21000;-81
2022/06/09 13:37:43;;;;;;;9.50;8.60;;;;;;;33.20;39.61;98009.69;2205832;79;21006;-77
2022/06/09 13:40:43;;;;;;;11.75;8.83;;;;;;;32.85;40.79;98014.29;2205029;79;21323;-79
2022/06/09 13:43:44;;;;;;;9.53;8.63;;;;;;;32.54;40.90;98018.42;2205161;79;21251;-80
2022/06/09 13:46:44;;;;;;;11.48;9.63;;;;;;;32.22;41.47;98013.69;2205801;79;20952;-82
2022/06/09 13:49:45;;;;;;;11.78;8.25;;;;;;;31.89;42.28;98014.32;2206361;79;21031;-81
2022/06/09 13:52:45;;;;;;;9.98;9.08;;;;;;;31.83;42.26;98018.91;2206255;79;21020;-80
2022/06/09 13:55:45;;;;;;;10.13;9.13;;;;;;;31.96;41.54;98028.98;2207582;79;20991;-80
2022/06/09 13:58:46;;;;;;;12.88;8.33;;;;;;;31.83;41.73;98043.69;2206932;79;20999;-80
2022/06/09 14:01:49;;;;;;;9.38;8.68;;;;;;;31.63;42.67;98047.59;2206321;79;21039;-81
2022/06/09 14:04:50;;;;;;;10.68;9.60;;;;;;;31.40;43.56;98038.43;2207901;79;20957;-81
2022/06/09 14:07:50;;;;;;;12.73;10.20;;;;;;;31.15;44.94;98032.89;2206826;79;20944;-80
2022/06/09 14:10:50;;;;;;;10.98;9.58;;;;;;;30.75;45.53;98016.01;2209027;79;21015;-80